sensor_id;sensor_type;location;lat;lon;timestamp;temperature;humidity
5848;DHT22;8756;49.29324300;8.70599800;2022-08-11T00:00:59;20.90;79.00
5848;DHT22;8756;49.29324300;8.70599800;2022-08-11T00:03:25;20.90;79.10
5848;DHT22;8756;49.29324300;8.70599800;2022-08-11T00:05:53;20.90;79.10
5848;DHT22;8756;49.29324300;8.70599800;2022-08-11T00:08:25;20.90;79.40
5848;DHT22;8756;49.29324300;8.70599800;2022-08-11T00:10:57;20.90;79.80
5848;DHT22;8756;49.29324300;8.70599800;2022-08-11T00:13:39;20.80;80.10
5848;DHT22;8756;49.29324300;8.70599800;2022-08-11T00:16:16;20.70;80.50
5848;DHT22;8756;49.29324300;8.70599800;2022-08-11T00:18:44;20.60;80.90
5848;DHT22;8756;49.29324300;8.70599800;2022-08-11T00:21:11;20.60;81.20
5848;DHT22;8756;49.29324300;8.70599800;2022-08-11T00:23:46;20.60;81.60
5848;DHT22;8756;49.29324300;8.70599800;2022-08-11T00:26:17;20.50;81.70
5848;DHT22;8756;49.29324300;8.70599800;2022-08-11T00:28:43;20.40;81.80
5848;DHT22;8756;49.29324300;8.70599800;2022-08-11T00:31:28;20.40;82.20
5848;DHT22;8756;49.29324300;8.70599800;2022-08-11T00:33:54;20.40;82.30
5848;DHT22;8756;49.29324300;8.70599800;2022-08-11T00:36:26;20.30;82.10
5848;DHT22;8756;49.29324300;8.70599800;2022-08-11T00:38:53;20.30;82.30
5848;DHT22;8756;49.29324300;8.70599800;2022-08-11T00:41:48;20.30;82.20
5848;DHT22;8756;49.29324300;8.70599800;2022-08-11T00:50:17;20.10;83.20
5848;DHT22;8756;49.29324300;8.70599800;2022-08-11T00:55:58;20.10;83.60
5848;DHT22;8756;49.29324300;8.70599800;2022-08-11T00:58:56;20.10;84.00
5848;DHT22;8756;49.29324300;8.70599800;2022-08-11T01:09:17;20.00;84.40
5848;DHT22;8756;49.29324300;8.70599800;2022-08-11T01:18:21;20.00;84.80
5848;DHT22;8756;49.29324300;8.70599800;2022-08-11T01:21:08;19.90;84.90
5848;DHT22;8756;49.29324300;8.70599800;2022-08-11T01:32:20;19.80;85.80
5848;DHT22;8756;49.29324300;8.70599800;2022-08-11T01:46:33;19.80;87.00
5848;DHT22;8756;49.29324300;8.70599800;2022-08-11T01:51:59;19.60;87.50
5848;DHT22;8756;49.29324300;8.70599800;2022-08-11T02:00:20;19.50;88.50
5848;DHT22;8756;49.29324300;8.70599800;2022-08-11T02:03:08;19.50;88.80
5848;DHT22;8756;49.29324300;8.70599800;2022-08-11T02:05:49;19.50;89.10
5848;DHT22;8756;49.29324300;8.70599800;2022-08-11T02:08:30;19.50;89.30
5848;DHT22;8756;49.29324300;8.70599800;2022-08-11T02:11:26;19.50;89.70
5848;DHT22;8756;49.29324300;8.70599800;2022-08-11T02:14:20;19.40;90.00
5848;DHT22;8756;49.29324300;8.70599800;2022-08-11T02:17:12;19.40;90.10
5848;DHT22;8756;49.29324300;8.70599800;2022-08-11T02:19:41;19.40;90.20
5848;DHT22;8756;49.29324300;8.70599800;2022-08-11T02:22:38;19.40;90.30
5848;DHT22;8756;49.29324300;8.70599800;2022-08-11T02:28:56;19.40;90.40
5848;DHT22;8756;49.29324300;8.70599800;2022-08-11T02:31:39;19.30;90.50
5848;DHT22;8756;49.29324300;8.70599800;2022-08-11T02:37:26;19.30;90.80
5848;DHT22;8756;49.29324300;8.70599800;2022-08-11T02:40:17;19.30;90.80
5848;DHT22;8756;49.29324300;8.70599800;2022-08-11T02:45:26;19.30;90.70
5848;DHT22;8756;49.29324300;8.70599800;2022-08-11T02:57:00;19.20;90.70
5848;DHT22;8756;49.29324300;8.70599800;2022-08-11T02:59:40;19.20;90.70
5848;DHT22;8756;49.29324300;8.70599800;2022-08-11T03:07:32;19.20;90.70
5848;DHT22;8756;49.29324300;8.70599800;2022-08-11T03:13:21;19.30;90.50
5848;DHT22;8756;49.29324300;8.70599800;2022-08-11T03:16:25;19.20;90.50
5848;DHT22;8756;49.29324300;8.70599800;2022-08-11T03:24:55;19.20;90.70
5848;DHT22;8756;49.29324300;8.70599800;2022-08-11T03:27:45;19.20;90.80
5848;DHT22;8756;49.29324300;8.70599800;2022-08-11T03:30:17;19.20;91.00
5848;DHT22;8756;49.29324300;8.70599800;2022-08-11T03:36:09;19.00;91.30
5848;DHT22;8756;49.29324300;8.70599800;2022-08-11T03:50:21;18.80;91.90
5848;DHT22;8756;49.29324300;8.70599800;2022-08-11T03:53:15;18.80;92.00
5848;DHT22;8756;49.29324300;8.70599800;2022-08-11T04:30:25;18.70;92.60
5848;DHT22;8756;49.29324300;8.70599800;2022-08-11T04:53:02;18.60;93.40
5848;DHT22;8756;49.29324300;8.70599800;2022-08-11T05:08:34;18.60;94.00
5848;DHT22;8756;49.29324300;8.70599800;2022-08-11T05:11:16;18.60;94.10
5848;DHT22;8756;49.29324300;8.70599800;2022-08-11T05:13:49;18.60;94.10
5848;DHT22;8756;49.29324300;8.70599800;2022-08-11T05:16:45;18.60;94.20
5848;DHT22;8756;49.29324300;8.70599800;2022-08-11T05:19:31;18.60;94.30
5848;DHT22;8756;49.29324300;8.70599800;2022-08-11T05:22:17;18.70;94.30
5848;DHT22;8756;49.29324300;8.70599800;2022-08-11T05:25:10;18.70;94.30
5848;DHT22;8756;49.29324300;8.70599800;2022-08-11T05:28:20;18.80;94.40
5848;DHT22;8756;49.29324300;8.70599800;2022-08-11T05:31:13;18.90;94.40
5848;DHT22;8756;49.29324300;8.70599800;2022-08-11T05:34:02;19.00;94.40
5848;DHT22;8756;49.29324300;8.70599800;2022-08-11T05:37:13;19.10;94.40
5848;DHT22;8756;49.29324300;8.70599800;2022-08-11T05:39:48;19.20;94.40
5848;DHT22;8756;49.29324300;8.70599800;2022-08-11T05:42:36;19.20;94.20
5848;DHT22;8756;49.29324300;8.70599800;2022-08-11T05:45:21;19.30;94.00
5848;DHT22;8756;49.29324300;8.70599800;2022-08-11T05:48:06;19.30;94.00
5848;DHT22;8756;49.29324300;8.70599800;2022-08-11T05:50:53;19.40;93.90
5848;DHT22;8756;49.29324300;8.70599800;2022-08-11T05:54:06;19.50;93.90
5848;DHT22;8756;49.29324300;8.70599800;2022-08-11T05:56:56;19.70;93.80
5848;DHT22;8756;49.29324300;8.70599800;2022-08-11T05:59:24;19.90;93.40
5848;DHT22;8756;49.29324300;8.70599800;2022-08-11T06:01:51;20.10;93.30
5848;DHT22;8756;49.29324300;8.70599800;2022-08-11T06:04:22;20.30;92.90
5848;DHT22;8756;49.29324300;8.70599800;2022-08-11T06:06:56;20.50;92.70
5848;DHT22;8756;49.29324300;8.70599800;2022-08-11T06:09:58;20.70;92.40
5848;DHT22;8756;49.29324300;8.70599800;2022-08-11T06:12:27;20.90;92.10
5848;DHT22;8756;49.29324300;8.70599800;2022-08-11T06:14:59;21.00;91.60
5848;DHT22;8756;49.29324300;8.70599800;2022-08-11T06:17:28;21.20;91.50
5848;DHT22;8756;49.29324300;8.70599800;2022-08-11T06:20:08;21.30;91.20
5848;DHT22;8756;49.29324300;8.70599800;2022-08-11T06:22:55;21.40;91.10
5848;DHT22;8756;49.29324300;8.70599800;2022-08-11T06:25:22;21.60;90.80
5848;DHT22;8756;49.29324300;8.70599800;2022-08-11T06:27:55;21.70;90.70
5848;DHT22;8756;49.29324300;8.70599800;2022-08-11T06:30:39;21.80;90.20
5848;DHT22;8756;49.29324300;8.70599800;2022-08-11T06:33:28;21.90;90.20
5848;DHT22;8756;49.29324300;8.70599800;2022-08-11T06:36:12;22.00;90.10
5848;DHT22;8756;49.29324300;8.70599800;2022-08-11T06:39:12;22.10;89.90
5848;DHT22;8756;49.29324300;8.70599800;2022-08-11T06:41:50;22.20;89.40
5848;DHT22;8756;49.29324300;8.70599800;2022-08-11T06:44:25;22.30;88.80
5848;DHT22;8756;49.29324300;8.70599800;2022-08-11T06:46:52;22.40;88.00
5848;DHT22;8756;49.29324300;8.70599800;2022-08-11T06:49:31;22.50;87.40
5848;DHT22;8756;49.29324300;8.70599800;2022-08-11T06:52:16;22.60;87.60
5848;DHT22;8756;49.29324300;8.70599800;2022-08-11T06:54:52;22.70;87.40
5848;DHT22;8756;49.29324300;8.70599800;2022-08-11T06:57:34;22.80;87.30
5848;DHT22;8756;49.29324300;8.70599800;2022-08-11T07:00:19;22.80;87.50
5848;DHT22;8756;49.29324300;8.70599800;2022-08-11T07:03:05;22.90;87.50
5848;DHT22;8756;49.29324300;8.70599800;2022-08-11T07:12:07;23.30;85.70
5848;DHT22;8756;49.29324300;8.70599800;2022-08-11T07:14:55;23.40;83.30
5848;DHT22;8756;49.29324300;8.70599800;2022-08-11T07:17:44;23.40;83.20
5848;DHT22;8756;49.29324300;8.70599800;2022-08-11T07:20:14;23.50;82.90
5848;DHT22;8756;49.29324300;8.70599800;2022-08-11T07:23:01;23.60;83.10
5848;DHT22;8756;49.29324300;8.70599800;2022-08-11T07:25:49;23.60;82.10
5848;DHT22;8756;49.29324300;8.70599800;2022-08-11T07:28:39;23.60;81.80
5848;DHT22;8756;49.29324300;8.70599800;2022-08-11T07:31:31;23.70;81.90
5848;DHT22;8756;49.29324300;8.70599800;2022-08-11T07:34:24;23.70;82.30
5848;DHT22;8756;49.29324300;8.70599800;2022-08-11T07:36:57;23.70;81.80
5848;DHT22;8756;49.29324300;8.70599800;2022-08-11T07:39:27;23.70;82.30
5848;DHT22;8756;49.29324300;8.70599800;2022-08-11T07:41:57;23.80;81.50
5848;DHT22;8756;49.29324300;8.70599800;2022-08-11T07:44:25;23.80;81.20
5848;DHT22;8756;49.29324300;8.70599800;2022-08-11T07:46:54;23.80;82.30
5848;DHT22;8756;49.29324300;8.70599800;2022-08-11T07:49:39;23.90;81.10
5848;DHT22;8756;49.29324300;8.70599800;2022-08-11T07:52:29;23.90;81.00
5848;DHT22;8756;49.29324300;8.70599800;2022-08-11T07:55:05;23.90;80.70
5848;DHT22;8756;49.29324300;8.70599800;2022-08-11T07:57:32;24.00;81.60
5848;DHT22;8756;49.29324300;8.70599800;2022-08-11T08:00:18;24.00;80.90
5848;DHT22;8756;49.29324300;8.70599800;2022-08-11T08:03:04;24.00;80.60
5848;DHT22;8756;49.29324300;8.70599800;2022-08-11T08:05:49;24.00;79.80
5848;DHT22;8756;49.29324300;8.70599800;2022-08-11T08:08:35;24.10;79.50
5848;DHT22;8756;49.29324300;8.70599800;2022-08-11T08:11:21;24.10;80.20
5848;DHT22;8756;49.29324300;8.70599800;2022-08-11T08:14:09;24.10;80.70
5848;DHT22;8756;49.29324300;8.70599800;2022-08-11T08:16:55;24.20;80.20
5848;DHT22;8756;49.29324300;8.70599800;2022-08-11T08:19:42;24.20;81.00
5848;DHT22;8756;49.29324300;8.70599800;2022-08-11T08:22:16;24.20;80.00
5848;DHT22;8756;49.29324300;8.70599800;2022-08-11T08:24:42;24.30;80.10
5848;DHT22;8756;49.29324300;8.70599800;2022-08-11T08:27:09;24.30;80.50
5848;DHT22;8756;49.29324300;8.70599800;2022-08-11T08:29:38;24.30;80.00
5848;DHT22;8756;49.29324300;8.70599800;2022-08-11T08:32:23;24.40;79.70
5848;DHT22;8756;49.29324300;8.70599800;2022-08-11T08:34:50;24.40;78.40
5848;DHT22;8756;49.29324300;8.70599800;2022-08-11T08:37:18;24.50;78.70
5848;DHT22;8756;49.29324300;8.70599800;2022-08-11T08:39:45;24.50;78.80
5848;DHT22;8756;49.29324300;8.70599800;2022-08-11T08:42:12;24.50;78.70
5848;DHT22;8756;49.29324300;8.70599800;2022-08-11T08:44:46;24.60;79.40
5848;DHT22;8756;49.29324300;8.70599800;2022-08-11T08:47:17;24.60;78.70
5848;DHT22;8756;49.29324300;8.70599800;2022-08-11T08:49:52;24.70;78.80
5848;DHT22;8756;49.29324300;8.70599800;2022-08-11T08:52:22;24.80;78.20
5848;DHT22;8756;49.29324300;8.70599800;2022-08-11T08:54:53;24.80;78.00
5848;DHT22;8756;49.29324300;8.70599800;2022-08-11T08:57:22;24.90;76.50
5848;DHT22;8756;49.29324300;8.70599800;2022-08-11T08:59:51;24.90;76.10
5848;DHT22;8756;49.29324300;8.70599800;2022-08-11T09:02:19;25.00;75.60
5848;DHT22;8756;49.29324300;8.70599800;2022-08-11T09:04:48;25.10;74.90
5848;DHT22;8756;49.29324300;8.70599800;2022-08-11T09:07:17;25.10;75.10
5848;DHT22;8756;49.29324300;8.70599800;2022-08-11T09:09:51;25.20;75.00
5848;DHT22;8756;49.29324300;8.70599800;2022-08-11T09:12:20;25.20;75.60
5848;DHT22;8756;49.29324300;8.70599800;2022-08-11T09:14:48;25.20;76.70
5848;DHT22;8756;49.29324300;8.70599800;2022-08-11T09:20:12;25.30;76.00
5848;DHT22;8756;49.29324300;8.70599800;2022-08-11T09:22:41;25.40;74.80
5848;DHT22;8756;49.29324300;8.70599800;2022-08-11T09:25:28;25.50;71.40
5848;DHT22;8756;49.29324300;8.70599800;2022-08-11T09:28:14;25.60;69.90
5848;DHT22;8756;49.29324300;8.70599800;2022-08-11T09:30:41;25.60;68.40
5848;DHT22;8756;49.29324300;8.70599800;2022-08-11T09:33:09;25.70;69.00
5848;DHT22;8756;49.29324300;8.70599800;2022-08-11T09:35:36;25.70;69.80
5848;DHT22;8756;49.29324300;8.70599800;2022-08-11T09:38:04;25.80;69.90
5848;DHT22;8756;49.29324300;8.70599800;2022-08-11T09:40:50;25.80;69.50
5848;DHT22;8756;49.29324300;8.70599800;2022-08-11T09:43:17;25.90;70.60
5848;DHT22;8756;49.29324300;8.70599800;2022-08-11T09:46:03;25.90;68.20
5848;DHT22;8756;49.29324300;8.70599800;2022-08-11T09:48:31;26.00;67.10
5848;DHT22;8756;49.29324300;8.70599800;2022-08-11T09:51:00;26.00;67.80
5848;DHT22;8756;49.29324300;8.70599800;2022-08-11T09:53:31;26.10;68.80
5848;DHT22;8756;49.29324300;8.70599800;2022-08-11T09:55:58;26.20;67.70
5848;DHT22;8756;49.29324300;8.70599800;2022-08-11T09:58:24;26.20;65.00
5848;DHT22;8756;49.29324300;8.70599800;2022-08-11T10:00:56;26.30;62.50
5848;DHT22;8756;49.29324300;8.70599800;2022-08-11T10:03:25;26.30;63.10
5848;DHT22;8756;49.29324300;8.70599800;2022-08-11T10:06:03;26.30;63.10
5848;DHT22;8756;49.29324300;8.70599800;2022-08-11T10:08:50;26.40;62.50
5848;DHT22;8756;49.29324300;8.70599800;2022-08-11T10:11:20;26.40;62.20
5848;DHT22;8756;49.29324300;8.70599800;2022-08-11T10:13:48;26.50;61.40
5848;DHT22;8756;49.29324300;8.70599800;2022-08-11T10:16:39;26.50;61.80
5848;DHT22;8756;49.29324300;8.70599800;2022-08-11T10:19:07;26.50;61.40
5848;DHT22;8756;49.29324300;8.70599800;2022-08-11T10:21:42;26.60;61.60
5848;DHT22;8756;49.29324300;8.70599800;2022-08-11T10:24:09;26.60;59.60
5848;DHT22;8756;49.29324300;8.70599800;2022-08-11T10:26:55;26.70;58.10
5848;DHT22;8756;49.29324300;8.70599800;2022-08-11T10:29:36;26.70;58.10
5848;DHT22;8756;49.29324300;8.70599800;2022-08-11T10:32:27;26.70;58.60
5848;DHT22;8756;49.29324300;8.70599800;2022-08-11T10:35:13;26.80;58.80
5848;DHT22;8756;49.29324300;8.70599800;2022-08-11T10:37:42;26.80;58.50
5848;DHT22;8756;49.29324300;8.70599800;2022-08-11T10:40:12;26.90;59.00
5848;DHT22;8756;49.29324300;8.70599800;2022-08-11T10:42:40;27.00;59.20
5848;DHT22;8756;49.29324300;8.70599800;2022-08-11T10:45:24;27.00;59.40
5848;DHT22;8756;49.29324300;8.70599800;2022-08-11T10:48:09;27.10;58.70
5848;DHT22;8756;49.29324300;8.70599800;2022-08-11T10:50:36;27.10;57.30
5848;DHT22;8756;49.29324300;8.70599800;2022-08-11T10:53:20;27.20;57.60
5848;DHT22;8756;49.29324300;8.70599800;2022-08-11T10:56:06;27.20;56.70
5848;DHT22;8756;49.29324300;8.70599800;2022-08-11T10:58:51;27.30;56.40
5848;DHT22;8756;49.29324300;8.70599800;2022-08-11T11:01:23;27.30;56.30
5848;DHT22;8756;49.29324300;8.70599800;2022-08-11T11:03:52;27.30;56.40
5848;DHT22;8756;49.29324300;8.70599800;2022-08-11T11:09:06;27.40;55.30
5848;DHT22;8756;49.29324300;8.70599800;2022-08-11T11:11:36;27.50;54.30
5848;DHT22;8756;49.29324300;8.70599800;2022-08-11T11:14:22;27.50;55.10
5848;DHT22;8756;49.29324300;8.70599800;2022-08-11T11:17:10;27.50;54.90
5848;DHT22;8756;49.29324300;8.70599800;2022-08-11T11:19:41;27.60;54.80
5848;DHT22;8756;49.29324300;8.70599800;2022-08-11T11:22:09;27.60;54.60
5848;DHT22;8756;49.29324300;8.70599800;2022-08-11T11:27:53;27.70;53.40
5848;DHT22;8756;49.29324300;8.70599800;2022-08-11T11:30:19;27.60;54.50
5848;DHT22;8756;49.29324300;8.70599800;2022-08-11T11:32:54;27.60;54.20
5848;DHT22;8756;49.29324300;8.70599800;2022-08-11T11:35:59;27.60;54.60
5848;DHT22;8756;49.29324300;8.70599800;2022-08-11T11:38:29;27.60;52.40
5848;DHT22;8756;49.29324300;8.70599800;2022-08-11T11:40:55;27.60;53.80
5848;DHT22;8756;49.29324300;8.70599800;2022-08-11T11:43:40;27.70;53.20
5848;DHT22;8756;49.29324300;8.70599800;2022-08-11T11:46:06;27.80;52.60
5848;DHT22;8756;49.29324300;8.70599800;2022-08-11T11:48:34;27.90;51.00
5848;DHT22;8756;49.29324300;8.70599800;2022-08-11T11:51:01;27.90;51.50
5848;DHT22;8756;49.29324300;8.70599800;2022-08-11T11:53:27;28.00;50.60
5848;DHT22;8756;49.29324300;8.70599800;2022-08-11T11:55:53;28.10;51.30
5848;DHT22;8756;49.29324300;8.70599800;2022-08-11T11:58:19;28.10;50.30
5848;DHT22;8756;49.29324300;8.70599800;2022-08-11T12:01:04;28.10;50.80
5848;DHT22;8756;49.29324300;8.70599800;2022-08-11T12:03:48;28.10;52.20
5848;DHT22;8756;49.29324300;8.70599800;2022-08-11T12:06:16;28.10;52.00
5848;DHT22;8756;49.29324300;8.70599800;2022-08-11T12:08:43;28.00;51.50
5848;DHT22;8756;49.29324300;8.70599800;2022-08-11T12:11:12;28.10;51.00
5848;DHT22;8756;49.29324300;8.70599800;2022-08-11T12:14:01;28.10;52.00
5848;DHT22;8756;49.29324300;8.70599800;2022-08-11T12:16:27;28.20;51.40
5848;DHT22;8756;49.29324300;8.70599800;2022-08-11T12:18:57;28.30;49.80
5848;DHT22;8756;49.29324300;8.70599800;2022-08-11T12:21:23;28.40;48.80
5848;DHT22;8756;49.29324300;8.70599800;2022-08-11T12:23:50;28.40;49.40
5848;DHT22;8756;49.29324300;8.70599800;2022-08-11T12:26:35;28.40;49.80
5848;DHT22;8756;49.29324300;8.70599800;2022-08-11T12:29:19;28.40;50.00
5848;DHT22;8756;49.29324300;8.70599800;2022-08-11T12:31:45;28.40;49.30
5848;DHT22;8756;49.29324300;8.70599800;2022-08-11T12:34:13;28.50;50.80
5848;DHT22;8756;49.29324300;8.70599800;2022-08-11T12:36:45;28.50;50.60
5848;DHT22;8756;49.29324300;8.70599800;2022-08-11T12:39:19;28.50;50.30
5848;DHT22;8756;49.29324300;8.70599800;2022-08-11T12:41:45;28.50;51.00
5848;DHT22;8756;49.29324300;8.70599800;2022-08-11T12:44:30;28.50;50.30
5848;DHT22;8756;49.29324300;8.70599800;2022-08-11T12:47:18;28.60;51.40
5848;DHT22;8756;49.29324300;8.70599800;2022-08-11T12:49:47;28.50;51.20
5848;DHT22;8756;49.29324300;8.70599800;2022-08-11T12:52:36;28.60;49.60
5848;DHT22;8756;49.29324300;8.70599800;2022-08-11T12:55:14;28.70;49.30
5848;DHT22;8756;49.29324300;8.70599800;2022-08-11T12:58:06;28.70;49.70
5848;DHT22;8756;49.29324300;8.70599800;2022-08-11T13:00:45;28.70;49.30
5848;DHT22;8756;49.29324300;8.70599800;2022-08-11T13:03:31;28.70;49.10
5848;DHT22;8756;49.29324300;8.70599800;2022-08-11T13:06:16;28.80;49.40
5848;DHT22;8756;49.29324300;8.70599800;2022-08-11T13:08:44;28.80;49.90
5848;DHT22;8756;49.29324300;8.70599800;2022-08-11T13:11:11;28.80;49.50
5848;DHT22;8756;49.29324300;8.70599800;2022-08-11T13:13:56;28.90;48.40
5848;DHT22;8756;49.29324300;8.70599800;2022-08-11T13:16:27;28.90;48.20
5848;DHT22;8756;49.29324300;8.70599800;2022-08-11T13:18:55;28.90;48.40
5848;DHT22;8756;49.29324300;8.70599800;2022-08-11T13:21:21;28.90;48.30
5848;DHT22;8756;49.29324300;8.70599800;2022-08-11T13:23:52;29.00;48.40
5848;DHT22;8756;49.29324300;8.70599800;2022-08-11T13:26:19;29.00;47.70
5848;DHT22;8756;49.29324300;8.70599800;2022-08-11T13:28:46;29.00;47.60
5848;DHT22;8756;49.29324300;8.70599800;2022-08-11T13:31:12;28.90;47.20
5848;DHT22;8756;49.29324300;8.70599800;2022-08-11T13:33:47;28.90;47.10
5848;DHT22;8756;49.29324300;8.70599800;2022-08-11T13:36:21;28.90;47.40
5848;DHT22;8756;49.29324300;8.70599800;2022-08-11T13:38:52;28.90;47.10
5848;DHT22;8756;49.29324300;8.70599800;2022-08-11T13:41:19;29.00;46.90
5848;DHT22;8756;49.29324300;8.70599800;2022-08-11T13:44:08;29.00;47.10
5848;DHT22;8756;49.29324300;8.70599800;2022-08-11T13:46:35;29.00;46.40
5848;DHT22;8756;49.29324300;8.70599800;2022-08-11T13:49:01;29.00;46.60
5848;DHT22;8756;49.29324300;8.70599800;2022-08-11T13:51:27;29.00;46.10
5848;DHT22;8756;49.29324300;8.70599800;2022-08-11T13:54:15;29.00;46.10
5848;DHT22;8756;49.29324300;8.70599800;2022-08-11T13:56:45;29.00;46.10
5848;DHT22;8756;49.29324300;8.70599800;2022-08-11T13:59:12;29.00;46.80
5848;DHT22;8756;49.29324300;8.70599800;2022-08-11T14:01:41;29.00;46.00
5848;DHT22;8756;49.29324300;8.70599800;2022-08-11T14:04:11;29.00;46.30
5848;DHT22;8756;49.29324300;8.70599800;2022-08-11T14:06:47;29.00;46.30
5848;DHT22;8756;49.29324300;8.70599800;2022-08-11T14:09:15;29.10;46.60
5848;DHT22;8756;49.29324300;8.70599800;2022-08-11T14:11:46;29.10;47.10
5848;DHT22;8756;49.29324300;8.70599800;2022-08-11T14:14:32;29.10;46.50
5848;DHT22;8756;49.29324300;8.70599800;2022-08-11T14:17:04;29.10;47.00
5848;DHT22;8756;49.29324300;8.70599800;2022-08-11T14:19:39;29.10;46.20
5848;DHT22;8756;49.29324300;8.70599800;2022-08-11T14:22:05;29.10;45.90
5848;DHT22;8756;49.29324300;8.70599800;2022-08-11T14:24:39;29.10;45.40
5848;DHT22;8756;49.29324300;8.70599800;2022-08-11T14:27:07;29.10;45.00
5848;DHT22;8756;49.29324300;8.70599800;2022-08-11T14:29:34;29.10;44.80
5848;DHT22;8756;49.29324300;8.70599800;2022-08-11T14:32:05;29.10;44.70
5848;DHT22;8756;49.29324300;8.70599800;2022-08-11T14:34:32;29.10;45.00
5848;DHT22;8756;49.29324300;8.70599800;2022-08-11T14:37:25;29.10;45.10
5848;DHT22;8756;49.29324300;8.70599800;2022-08-11T14:40:01;29.20;45.90
5848;DHT22;8756;49.29324300;8.70599800;2022-08-11T14:42:47;29.20;45.70
5848;DHT22;8756;49.29324300;8.70599800;2022-08-11T14:45:31;29.10;46.80
5848;DHT22;8756;49.29324300;8.70599800;2022-08-11T14:48:16;29.10;46.60
5848;DHT22;8756;49.29324300;8.70599800;2022-08-11T14:50:42;29.10;46.10
5848;DHT22;8756;49.29324300;8.70599800;2022-08-11T14:53:10;29.10;46.20
5848;DHT22;8756;49.29324300;8.70599800;2022-08-11T14:55:38;29.10;46.30
5848;DHT22;8756;49.29324300;8.70599800;2022-08-11T14:58:25;29.10;45.80
5848;DHT22;8756;49.29324300;8.70599800;2022-08-11T15:00:57;29.10;46.50
5848;DHT22;8756;49.29324300;8.70599800;2022-08-11T15:03:25;29.10;46.00
5848;DHT22;8756;49.29324300;8.70599800;2022-08-11T15:05:54;29.00;46.60
5848;DHT22;8756;49.29324300;8.70599800;2022-08-11T15:08:21;29.00;45.60
5848;DHT22;8756;49.29324300;8.70599800;2022-08-11T15:11:11;29.00;45.80
5848;DHT22;8756;49.29324300;8.70599800;2022-08-11T15:13:58;29.10;45.90
5848;DHT22;8756;49.29324300;8.70599800;2022-08-11T15:16:25;29.10;45.80
5848;DHT22;8756;49.29324300;8.70599800;2022-08-11T15:19:10;29.20;45.70
5848;DHT22;8756;49.29324300;8.70599800;2022-08-11T15:21:36;29.20;46.60
5848;DHT22;8756;49.29324300;8.70599800;2022-08-11T15:24:20;29.10;46.50
5848;DHT22;8756;49.29324300;8.70599800;2022-08-11T15:26:49;29.10;46.90
5848;DHT22;8756;49.29324300;8.70599800;2022-08-11T15:29:35;29.10;45.90
5848;DHT22;8756;49.29324300;8.70599800;2022-08-11T15:32:21;29.10;45.50
5848;DHT22;8756;49.29324300;8.70599800;2022-08-11T15:34:59;29.10;45.30
5848;DHT22;8756;49.29324300;8.70599800;2022-08-11T15:37:46;29.10;45.40
5848;DHT22;8756;49.29324300;8.70599800;2022-08-11T15:40:26;29.10;46.20
5848;DHT22;8756;49.29324300;8.70599800;2022-08-11T15:46:15;29.10;45.60
5848;DHT22;8756;49.29324300;8.70599800;2022-08-11T15:48:58;29.10;45.80
5848;DHT22;8756;49.29324300;8.70599800;2022-08-11T15:53:57;29.10;46.00
5848;DHT22;8756;49.29324300;8.70599800;2022-08-11T15:56:28;29.10;46.10
5848;DHT22;8756;49.29324300;8.70599800;2022-08-11T15:58:56;29.10;45.80
5848;DHT22;8756;49.29324300;8.70599800;2022-08-11T16:01:43;29.20;45.20
5848;DHT22;8756;49.29324300;8.70599800;2022-08-11T16:04:29;29.20;45.20
5848;DHT22;8756;49.29324300;8.70599800;2022-08-11T16:07:05;29.20;44.90
5848;DHT22;8756;49.29324300;8.70599800;2022-08-11T16:12:24;29.30;45.70
5848;DHT22;8756;49.29324300;8.70599800;2022-08-11T16:14:57;29.30;45.40
5848;DHT22;8756;49.29324300;8.70599800;2022-08-11T16:17:45;29.40;44.70
5848;DHT22;8756;49.29324300;8.70599800;2022-08-11T16:20:16;29.50;44.50
5848;DHT22;8756;49.29324300;8.70599800;2022-08-11T16:22:44;29.70;44.60
5848;DHT22;8756;49.29324300;8.70599800;2022-08-11T16:25:22;29.80;44.30
5848;DHT22;8756;49.29324300;8.70599800;2022-08-11T16:27:51;29.80;43.50
5848;DHT22;8756;49.29324300;8.70599800;2022-08-11T16:30:18;29.80;43.30
5848;DHT22;8756;49.29324300;8.70599800;2022-08-11T16:32:46;29.80;43.40
5848;DHT22;8756;49.29324300;8.70599800;2022-08-11T16:35:18;29.80;43.40
5848;DHT22;8756;49.29324300;8.70599800;2022-08-11T16:38:03;29.80;43.70
5848;DHT22;8756;49.29324300;8.70599800;2022-08-11T16:40:51;29.80;44.00
5848;DHT22;8756;49.29324300;8.70599800;2022-08-11T16:43:20;29.80;44.90
5848;DHT22;8756;49.29324300;8.70599800;2022-08-11T16:46:06;29.90;44.80
5848;DHT22;8756;49.29324300;8.70599800;2022-08-11T16:48:51;30.00;44.40
5848;DHT22;8756;49.29324300;8.70599800;2022-08-11T16:51:18;30.00;44.00
5848;DHT22;8756;49.29324300;8.70599800;2022-08-11T16:53:46;30.00;43.80
5848;DHT22;8756;49.29324300;8.70599800;2022-08-11T16:56:17;30.00;43.20
5848;DHT22;8756;49.29324300;8.70599800;2022-08-11T16:58:48;30.00;43.30
5848;DHT22;8756;49.29324300;8.70599800;2022-08-11T17:01:34;30.00;43.20
5848;DHT22;8756;49.29324300;8.70599800;2022-08-11T17:04:37;29.90;43.70
5848;DHT22;8756;49.29324300;8.70599800;2022-08-11T17:07:23;29.90;43.40
5848;DHT22;8756;49.29324300;8.70599800;2022-08-11T17:10:20;29.80;43.60
5848;DHT22;8756;49.29324300;8.70599800;2022-08-11T17:13:07;29.80;43.90
5848;DHT22;8756;49.29324300;8.70599800;2022-08-11T17:15:41;29.80;44.20
5848;DHT22;8756;49.29324300;8.70599800;2022-08-11T17:18:28;29.80;43.70
5848;DHT22;8756;49.29324300;8.70599800;2022-08-11T17:21:16;29.60;43.20
5848;DHT22;8756;49.29324300;8.70599800;2022-08-11T17:23:46;29.50;43.40
5848;DHT22;8756;49.29324300;8.70599800;2022-08-11T17:26:20;29.40;43.30
5848;DHT22;8756;49.29324300;8.70599800;2022-08-11T17:28:50;29.30;43.50
5848;DHT22;8756;49.29324300;8.70599800;2022-08-11T17:31:19;29.20;44.00
5848;DHT22;8756;49.29324300;8.70599800;2022-08-11T17:34:07;29.20;44.20
5848;DHT22;8756;49.29324300;8.70599800;2022-08-11T17:36:55;29.10;44.70
5848;DHT22;8756;49.29324300;8.70599800;2022-08-11T17:39:27;29.00;45.00
5848;DHT22;8756;49.29324300;8.70599800;2022-08-11T17:41:54;29.00;44.80
5848;DHT22;8756;49.29324300;8.70599800;2022-08-11T17:44:39;29.00;45.00
5848;DHT22;8756;49.29324300;8.70599800;2022-08-11T17:47:26;28.90;45.30
5848;DHT22;8756;49.29324300;8.70599800;2022-08-11T17:50:11;28.80;45.30
5848;DHT22;8756;49.29324300;8.70599800;2022-08-11T17:52:40;28.70;45.50